AirNav   ProFlight Series 2 Aviation Headset
 
 1180 users online  

8TN7 Short Creek Airport
Dover, Tennessee, USA

GOING TO DOVER?


FAA INFORMATION EFFECTIVE 16 JULY 2020

Location

FAA Identifier: 8TN7
Lat/Long: 36-24-03.0000N 087-59-30.0000W
36-24.050000N 087-59.500000W
36.4008333,-87.9916667
(estimated)
Elevation: 390 ft. / 119 m (estimated)
Variation: 01W (1995)
From city: 10 miles SW of DOVER, TN
Time zone: UTC -5 (UTC -6 during Standard Time)
Zip code: 37058

Airport Operations

Airport use: Private use. Permission required prior to landing
Control tower: no
ARTCC: MEMPHIS CENTER
FSS: JACKSON FLIGHT SERVICE STATION
Attendance: UNATNDD
Wind indicator: yes
Segmented circle: no

Airport Communications

WX AWOS-3 at PHT (19 nm W): 118.825 (731-644-0451)

Nearby radio navigation aids

VOR radial/distance  VOR name  Freq  Var
CKVr246/30.9CLARKSVILLE VOR/DME110.6001W

 
NDB name  Hdg/Dist  Freq  Var  ID
TRAINER066/22.441000ETIQ - .. --.-
HUNTINGDON053/29.721702WHZD .... --.. -..

Airport Services

Runway Information

Runway 7/25

Dimensions: 2560 x 30 ft. / 780 x 9 m
Surface: turf
RUNWAY 7  RUNWAY 25
Traffic pattern: leftleft

Airport Ownership and Management from official FAA records

Ownership: Privately-owned
Owner: WILLIAM HOLDER
8044 GLEASON DR #J2
KNOXVILLE, TN 37919
Phone 423-691-3165
Manager: WILLIAM HOLDER
SHORT CREEK RD
DOVER, TN 37058
Phone 865-691-3165

Airport Operational Statistics

Aircraft based on the field: 2
Single engine airplanes: 1
Multi engine airplanes: 1
    

Additional Remarks

1100 FT MSL RADIO TWR 2 MI E OF ARPT.
FOR CD CTC MEMPHIS ARTCC AT 901-368-8453.

Instrument Procedures

There are no published instrument procedures at 8TN7.

Some nearby airports with instrument procedures:

KPHT - Henry County Airport (19 nm W)
0M5 - Humphreys County Airport (21 nm SE)
KCEY - Kyle-Oakley Field Airport (24 nm NW)
0M4 - Benton County Airport (24 nm S)
KEOD - Sabre Army Airfield (Fort Campbell) (27 nm E)
 
Loc | Ops | Rwys | IFR | FBO | Links
Com | Nav | Svcs | Stats | Notes
Area around 8TN7 (Short Creek Airport)
 
Road maps at: MapQuest Bing Google
 
Aerial photo
WARNING: Photo may not be current or correct
Aerial photo of 8TN7 (Short Creek Airport)
Photo by Brad Bertele
Taken in August 2005

Do you have a better or more recent aerial photo of Short Creek Airport that you would like to share? If so, please send us your photo.

 
Sectional chart

 
Airport distance calculator
Flying to Short Creek Airport? Find the distance to fly.

From to 8TN7

Sunrise and sunset
Times for 06-Aug-2020
 Local
(UTC-5)
 Zulu
(UTC)
Morning civil twilight05:3610:36
Sunrise06:0411:04
Sunset19:5100:51
Evening civil twilight20:1901:19

Current date and time
Zulu (UTC)  06-Aug-2020 13:18:47
Local (UTC-5)  06-Aug-2020 08:18:47
 
METAR
KPHT 
19nm W 
061255Z AUTO 36005KT 10SM CLR 19/17 A3008 RMK A01
KCEY 
24nm NW 
061255Z AUTO 34005KT 10SM CLR 19/16 A3010 RMK AO1
KEOD 
27nm E 
061258Z AUTO 03004KT 10SM CLR 20/16 A3008 RMK AO2 SLP185 T01990163
KHOP 
29nm NE 
061256Z AUTO 01006KT 10SM FEW050 20/18 A3008 RMK AO2 SLP185 T01980181
KHZD 
30nm SW 
061255Z AUTO 02003KT 10SM CLR 21/18 A3007 RMK A01
KCKV 
31nm NE 
061252Z AUTO 03005KT 10SM CLR 20/17 A3008 RMK AO2 SLP180 T02000172 $
KM02 
32nm SE 
061255Z AUTO 02006KT 10SM CLR 19/17 A3007 RMK A01
KM25 
36nm NW 
061255Z AUTO 36003KT 10SM SCT046 18/16 A3011 RMK AO2 PWINO
TAF
KHOP 
29nm NE 
060800Z 0608/0714 01006KT 9999 FEW040 QNH3003INS TX28/0621Z TN16/0708Z
KCKV 
31nm NE 
061128Z 0612/0712 01007KT P6SM SCT050
NOTAMs
Click for the latest NOTAMs
NOTAMs are issued by the DoD/FAA and will open in a separate window not controlled by AirNav.

 

 
 

Would you like to see your business listed on this page?

 If your business provides an interesting product or service to pilots, flight crews, aircraft, or users of the Short Creek Airport, you should consider listing it here.  To start the listing process, click on the button below
 
Add a business
 

Other Pages about Short Creek Airport

Update a link
 
Copyright © AirNav, LLC. All rights reserved. Privacy Policy  Contact